Time;durP1;ratioP1;P1;durP2;ratioP2;P2;SDS_P1;SDS_P2;PMS_P1;PMS_P2;Temp;Humidity;BMP_temperature;BMP_pressure;BME280_temperature;BME280_humidity;BME280_pressure;Samples;Min_cycle;Max_cycle;Signal;HPM_P1;HPM_P2
2020/12/05 00:02:22;;;;;;;;;;;;;;;17.98;58.88;101051.13;5049775;28;1415;-63
2020/12/05 00:04:48;;;;;;;;;;;;;;;17.99;59.48;101040.31;5036974;28;1182;-64
2020/12/05 00:07:13;;;;;;;;;;;;;;;17.97;59.05;101054.81;5054794;28;813;-64
2020/12/05 00:09:39;;;;;;;;;;;;;;;17.99;58.94;101048.34;5054496;28;1918;-64
2020/12/05 00:12:05;;;;;;;;;;;;;;;17.99;58.40;101056.38;5036958;28;1219;-64
2020/12/05 00:14:30;;;;;;;;;;;;;;;17.89;59.75;101058.94;5054721;28;1107;-70
2020/12/05 00:16:55;;;;;;;;;;;;;;;17.98;58.22;101059.16;5036782;28;1278;-70
2020/12/05 00:19:21;;;;;;;;;;;;;;;18.01;58.70;101064.28;5036941;28;1315;-64
2020/12/05 00:21:50;;;;;;;;;;;;;;;17.88;58.78;101065.22;5036819;28;1295;-70
2020/12/05 00:24:15;;;;;;;;;;;;;;;17.93;58.48;101072.94;5054488;28;805;-70
2020/12/05 00:26:41;;;;;;;;;;;;;;;17.88;58.99;101067.06;5054613;28;801;-64
2020/12/05 00:29:06;;;;;;;;;;;;;;;17.90;58.77;101062.44;5054370;28;1885;-64
2020/12/05 00:31:31;;;;;;;;;;;;;;;17.86;59.15;101059.16;5036739;28;1262;-64
2020/12/05 00:33:58;;;;;;;;;;;;;;;17.85;58.29;101070.84;5054230;28;786;-71
2020/12/05 00:36:23;;;;;;;;;;;;;;;17.82;59.35;101080.91;5036770;28;1436;-70
2020/12/05 00:38:48;;;;;;;;;;;;;;;17.85;58.55;101059.31;5054402;28;790;-64
2020/12/05 00:41:17;;;;;;;;;;;;;;;17.80;57.90;101064.13;5054445;28;734;-64
2020/12/05 00:43:42;;;;;;;;;;;;;;;17.79;58.99;101075.81;5036719;28;1269;-71
2020/12/05 00:46:08;;;;;;;;;;;;;;;17.85;58.51;101065.50;5054222;28;715;-63
2020/12/05 00:48:33;;;;;;;;;;;;;;;17.84;58.25;101063.78;5020154;28;1212;-64
2020/12/05 00:50:58;;;;;;;;;;;;;;;17.82;57.95;101049.63;5036529;28;1952;-64
2020/12/05 00:53:24;;;;;;;;;;;;;;;17.77;59.22;101062.53;5054052;28;718;-64
2020/12/05 00:55:49;;;;;;;;;;;;;;;17.74;58.65;101062.78;5036634;28;1410;-64
2020/12/05 00:58:15;;;;;;;;;;;;;;;17.83;57.78;101059.41;5054300;28;918;-71
2020/12/05 01:00:40;;;;;;;;;;;;;;;17.75;59.07;101075.19;5054098;28;1397;-64
2020/12/05 01:03:06;;;;;;;;;;;;;;;17.71;58.51;101063.03;5036425;28;1438;-63
2020/12/05 01:05:32;;;;;;;;;;;;;;;17.65;59.19;101064.34;5036490;28;1140;-64
2020/12/05 01:07:59;;;;;;;;;;;;;;;17.71;57.61;101071.06;5054101;28;799;-70
2020/12/05 01:10:25;;;;;;;;;;;;;;;17.67;58.65;101070.44;5036385;28;1924;-70
2020/12/05 01:12:51;;;;;;;;;;;;;;;17.60;57.99;101076.38;5036739;28;1328;-70
2020/12/05 01:15:16;;;;;;;;;;;;;;;17.62;58.69;101082.44;5057834;28;796;-64
2020/12/05 01:17:42;;;;;;;;;;;;;;;17.72;57.40;101058.53;5057498;28;773;-64
2020/12/05 01:20:07;;;;;;;;;;;;;;;17.73;58.46;101061.09;5057599;28;848;-70
2020/12/05 01:22:33;;;;;;;;;;;;;;;17.66;58.64;101060.69;5039762;28;1337;-69
2020/12/05 01:24:58;;;;;;;;;;;;;;;17.60;59.11;101076.38;5039807;28;1196;-70
2020/12/05 01:27:24;;;;;;;;;;;;;;;17.62;58.31;101077.09;5057612;28;832;-64
2020/12/05 01:29:49;;;;;;;;;;;;;;;17.55;58.44;101070.50;5039601;28;1893;-70
2020/12/05 01:32:14;;;;;;;;;;;;;;;17.60;58.03;101073.69;5039640;28;1500;-70
2020/12/05 01:34:40;;;;;;;;;;;;;;;17.64;58.96;101067.97;5039532;28;1181;-70
2020/12/05 01:37:05;;;;;;;;;;;;;;;17.65;58.22;101058.16;5057413;28;749;-71
2020/12/05 01:39:31;;;;;;;;;;;;;;;17.70;57.40;101066.66;5039580;28;1462;-64
2020/12/05 01:41:56;;;;;;;;;;;;;;;17.66;58.54;101073.22;5039532;28;1176;-64
2020/12/05 01:44:21;;;;;;;;;;;;;;;17.63;58.54;101070.81;5039435;28;1183;-64
2020/12/05 01:46:47;;;;;;;;;;;;;;;17.56;58.77;101069.56;5039283;28;1175;-64
2020/12/05 01:49:17;;;;;;;;;;;;;;;17.57;58.38;101073.94;5057019;28;1957;-64
2020/12/05 01:51:43;;;;;;;;;;;;;;;17.50;58.87;101068.19;5056921;28;733;-64
2020/12/05 01:54:09;;;;;;;;;;;;;;;17.48;59.02;101062.13;5039255;28;1136;-71
2020/12/05 01:56:34;;;;;;;;;;;;;;;17.58;58.46;101072.97;5056869;28;742;-64
2020/12/05 01:59:00;;;;;;;;;;;;;;;17.48;59.10;101075.50;5056692;28;789;-70
2020/12/05 02:01:26;;;;;;;;;;;;;;;17.47;58.42;101074.66;5035546;28;1307;-71
2020/12/05 02:03:55;;;;;;;;;;;;;;;17.59;57.56;101083.56;5036636;28;1284;-63
2020/12/05 02:06:39;;;;;;;;;;;;;;;17.53;57.60;101080.47;5036633;28;828;-63
2020/12/05 02:09:17;;;;;;;;;;;;;;;17.31;59.55;101076.78;5036556;28;1909;-71
2020/12/05 02:11:47;;;;;;;;;;;;;;;17.16;60.35;101072.59;5035585;28;1196;-64
2020/12/05 02:14:15;;;;;;;;;;;;;;;17.05;61.77;101084.97;5036616;28;805;-71
2020/12/05 02:16:40;;;;;;;;;;;;;;;16.99;61.89;101088.09;5035461;28;1183;-70
2020/12/05 02:19:08;;;;;;;;;;;;;;;16.98;62.29;101085.53;5036371;28;800;-70
2020/12/05 02:21:34;;;;;;;;;;;;;;;16.95;62.11;101096.44;5036435;28;797;-71
2020/12/05 02:24:00;;;;;;;;;;;;;;;16.93;63.65;101091.22;5036392;28;726;-63
2020/12/05 02:26:26;;;;;;;;;;;;;;;16.88;63.28;101093.38;5036673;28;892;-64
2020/12/05 02:28:51;;;;;;;;;;;;;;;16.86;62.84;101100.66;5035291;28;1152;-64
2020/12/05 02:31:17;;;;;;;;;;;;;;;16.85;62.94;101097.13;5036158;28;1878;-64
2020/12/05 02:33:42;;;;;;;;;;;;;;;16.81;63.33;101094.75;5035075;28;1198;-63
2020/12/05 02:36:08;;;;;;;;;;;;;;;16.82;63.35;101093.84;5036126;28;770;-69
2020/12/05 02:38:48;;;;;;;;;;;;;;;16.84;64.18;101106.09;5035117;28;1173;-64
2020/12/05 02:41:14;;;;;;;;;;;;;;;16.80;64.47;101096.56;5034968;28;1260;-69
2020/12/05 02:43:39;;;;;;;;;;;;;;;16.80;64.64;101098.41;5035969;28;726;-71
2020/12/05 02:46:05;;;;;;;;;;;;;;;16.82;63.83;101107.19;5035803;28;856;-71
2020/12/05 02:48:30;;;;;;;;;;;;;;;16.81;64.35;101100.09;5035818;28;835;-70
2020/12/05 02:50:55;;;;;;;;;;;;;;;16.81;64.06;101105.44;5035798;28;1878;-69
2020/12/05 02:53:21;;;;;;;;;;;;;;;16.73;64.49;101099.81;5035644;28;833;-64
2020/12/05 02:55:46;;;;;;;;;;;;;;;16.75;64.49;101103.22;5034712;28;1341;-70
2020/12/05 02:58:11;;;;;;;;;;;;;;;16.71;64.78;101105.25;5035792;28;822;-64
2020/12/05 03:00:37;;;;;;;;;;;;;;;16.69;65.84;101105.38;5036370;28;1322;-72
2020/12/05 03:03:02;;;;;;;;;;;;;;;16.70;65.74;101101.72;5055654;28;1380;-66
2020/12/05 03:05:28;;;;;;;;;;;;;;;16.67;65.77;101101.97;5055705;28;864;-70
2020/12/05 03:07:53;;;;;;;;;;;;;;;16.67;65.44;101093.97;5037806;28;1294;-64
2020/12/05 03:10:19;;;;;;;;;;;;;;;16.63;65.50;101097.81;5037633;28;1918;-64
2020/12/05 03:12:44;;;;;;;;;;;;;;;16.62;65.51;101092.59;5037698;28;1190;-70
2020/12/05 03:15:09;;;;;;;;;;;;;;;16.61;65.48;101110.44;5055588;28;765;-64
2020/12/05 03:17:35;;;;;;;;;;;;;;;16.58;65.76;101107.97;5055331;28;824;-69
2020/12/05 03:20:00;;;;;;;;;;;;;;;16.60;65.52;101115.88;5055447;28;789;-64
2020/12/05 03:22:25;;;;;;;;;;;;;;;16.61;65.27;101102.44;5037516;28;1470;-71
2020/12/05 03:24:51;;;;;;;;;;;;;;;16.58;65.34;101099.13;5055598;28;769;-65
2020/12/05 03:27:17;;;;;;;;;;;;;;;16.61;66.05;101110.44;5037494;28;1566;-63
2020/12/05 03:29:42;;;;;;;;;;;;;;;16.62;65.85;101116.63;5055273;28;1894;-69
2020/12/05 03:32:17;;;;;;;;;;;;;;;16.62;65.60;101108.59;5055322;28;812;-70
2020/12/05 03:34:42;;;;;;;;;;;;;;;16.60;65.45;101114.06;5054910;28;757;-69
2020/12/05 03:37:11;;;;;;;;;;;;;;;16.59;66.22;101123.03;5036920;28;1161;-70
2020/12/05 03:39:37;;;;;;;;;;;;;;;16.57;65.46;101116.09;5054912;28;789;-64
2020/12/05 03:42:02;;;;;;;;;;;;;;;16.56;66.40;101131.25;5037299;28;1259;-71
2020/12/05 03:44:28;;;;;;;;;;;;;;;16.54;66.20;101124.34;5037225;28;1171;-70
2020/12/05 03:46:53;;;;;;;;;;;;;;;16.52;66.03;101128.94;5054776;28;742;-64
2020/12/05 03:49:19;;;;;;;;;;;;;;;16.48;66.06;101125.63;5037159;28;1894;-71
2020/12/05 03:51:44;;;;;;;;;;;;;;;16.52;66.94;101121.78;5037240;28;1354;-69
2020/12/05 03:54:09;;;;;;;;;;;;;;;16.50;66.71;101123.69;5054919;28;801;-70
2020/12/05 03:56:35;;;;;;;;;;;;;;;16.49;65.83;101124.66;5037217;28;1152;-64
2020/12/05 03:59:00;;;;;;;;;;;;;;;16.49;66.51;101116.63;5037019;28;1217;-71
2020/12/05 04:01:25;;;;;;;;;;;;;;;16.51;66.62;101125.38;5036927;28;1172;-70
2020/12/05 04:03:51;;;;;;;;;;;;;;;16.49;66.94;101128.19;5036968;28;1348;-69
2020/12/05 04:06:16;;;;;;;;;;;;;;;16.50;66.12;101123.69;5054835;28;726;-63
2020/12/05 04:08:42;;;;;;;;;;;;;;;16.48;66.23;101120.28;5036980;28;1172;-71
2020/12/05 04:11:07;;;;;;;;;;;;;;;16.53;65.90;101125.28;5036850;28;1910;-64
2020/12/05 04:13:33;;;;;;;;;;;;;;;16.46;66.54;101125.72;5036984;28;1243;-63
2020/12/05 04:15:58;;;;;;;;;;;;;;;16.46;66.12;101127.56;5054683;28;738;-70
2020/12/05 04:18:23;;;;;;;;;;;;;;;16.44;66.57;101134.81;5054334;28;860;-63
2020/12/05 04:20:49;;;;;;;;;;;;;;;16.42;66.98;101131.41;5054780;28;793;-71
2020/12/05 04:23:14;;;;;;;;;;;;;;;16.42;67.21;101126.91;5036805;28;1166;-72
2020/12/05 04:25:40;;;;;;;;;;;;;;;16.38;67.40;101125.44;5054850;28;741;-63
2020/12/05 04:28:05;;;;;;;;;;;;;;;16.35;66.84;101109.63;5054478;28;774;-64
2020/12/05 04:30:30;;;;;;;;;;;;;;;16.35;67.03;101128.31;5054383;28;1910;-71
2020/12/05 04:32:56;;;;;;;;;;;;;;;16.38;67.20;101130.78;5036822;28;1180;-69
2020/12/05 04:35:21;;;;;;;;;;;;;;;16.32;67.33;101120.53;5036703;28;1438;-64
2020/12/05 04:37:46;;;;;;;;;;;;;;;16.34;67.21;101115.94;5054428;28;793;-63
2020/12/05 04:40:12;;;;;;;;;;;;;;;16.33;66.69;101124.88;5036667;28;1155;-64
2020/12/05 04:42:47;;;;;;;;;;;;;;;16.35;67.51;101133.63;5054142;28;789;-70
2020/12/05 04:45:13;;;;;;;;;;;;;;;16.39;66.34;101131.59;5054596;28;730;-70
2020/12/05 04:47:40;;;;;;;;;;;;;;;16.38;66.91;101133.44;5054618;28;758;-64
2020/12/05 04:50:06;;;;;;;;;;;;;;;16.41;67.26;101135.03;5058159;28;1889;-71
2020/12/05 04:52:40;;;;;;;;;;;;;;;16.36;66.38;101130.03;5058007;28;815;-64
2020/12/05 04:55:06;;;;;;;;;;;;;;;16.33;66.68;101134.72;5057842;28;750;-64
2020/12/05 04:57:37;;;;;;;;;;;;;;;16.32;66.45;101135.69;5040280;28;1153;-63
2020/12/05 05:00:03;;;;;;;;;;;;;;;16.30;66.77;101125.97;5040221;28;1140;-64
2020/12/05 05:02:29;;;;;;;;;;;;;;;16.29;67.47;101132.28;5057616;28;1315;-70
2020/12/05 05:04:54;;;;;;;;;;;;;;;16.27;67.46;101144.88;5058001;28;900;-65
2020/12/05 05:07:20;;;;;;;;;;;;;;;16.26;67.02;101135.16;5040302;28;1175;-63
2020/12/05 05:10:16;;;;;;;;;;;;;;;16.28;66.71;101145.72;5039713;28;1977;-63
2020/12/05 05:12:38;;;;;;;;;;;;;;;16.30;67.24;101149.16;5055278;28;1180;-68
2020/12/05 05:15:28;;;;;;;;;;;;;;;16.38;65.82;101146.78;5039753;28;1192;-65
2020/12/05 05:17:53;;;;;;;;;;;;;;;16.57;66.46;101162.31;5073201;28;1258;-63
2020/12/05 05:20:20;;;;;;;;;;;;;;;16.66;65.15;101151.00;5057220;28;1187;-70
2020/12/05 05:22:46;;;;;;;;;;;;;;;16.72;64.91;101152.38;5009257;28;10859;-71
2020/12/05 05:25:12;;;;;;;;;;;;;;;16.73;66.16;101161.22;5055091;28;1366;-73
2020/12/05 05:27:37;;;;;;;;;;;;;;;16.69;66.23;101171.28;5016211;28;10802;-77
2020/12/05 05:30:07;;;;;;;;;;;;;;;16.65;66.27;101162.66;5070130;28;1971;-72
2020/12/05 05:32:41;;;;;;;;;;;;;;;16.77;64.26;101168.06;5056965;28;1338;-71
2020/12/05 05:35:13;;;;;;;;;;;;;;;16.70;65.86;101157.81;5081090;28;1204;-70
2020/12/05 05:37:39;;;;;;;;;;;;;;;16.70;64.98;101164.97;5056958;28;1382;-75
2020/12/05 05:40:06;;;;;;;;;;;;;;;16.59;65.25;101165.75;5055721;28;1403;-75
2020/12/05 05:42:31;;;;;;;;;;;;;;;16.60;65.63;101175.47;5057018;28;1334;-73
2020/12/05 05:45:14;;;;;;;;;;;;;;;16.56;65.52;101182.00;5056677;28;1404;-72
2020/12/05 05:47:41;;;;;;;;;;;;;;;16.27;64.92;101176.91;5055632;28;1455;-62
2020/12/05 05:50:22;;;;;;;;;;;;;;;16.21;65.36;101177.31;5055478;28;1953;-76
2020/12/05 05:52:57;;;;;;;;;;;;;;;16.54;64.65;101173.25;5086739;28;1361;-62
2020/12/05 05:55:37;;;;;;;;;;;;;;;16.61;63.71;101189.66;5056909;28;800;-75
2020/12/05 05:58:03;;;;;;;;;;;;;;;16.82;63.02;101182.81;5055766;28;1160;-75
2020/12/05 06:00:29;;;;;;;;;;;;;;;16.88;62.24;101192.22;5055404;28;2174;-72
2020/12/05 06:02:58;;;;;;;;;;;;;;;16.89;61.43;101189.44;5056208;28;1300;-62
2020/12/05 06:05:25;;;;;;;;;;;;;;;17.16;60.08;101192.88;5055939;28;1349;-62
2020/12/05 06:07:51;;;;;;;;;;;;;;;17.28;58.69;101186.59;5053692;28;1310;-73
2020/12/05 06:10:17;;;;;;;;;;;;;;;17.50;58.06;101205.41;5055033;28;1918;-62
2020/12/05 06:12:42;;;;;;;;;;;;;;;17.70;57.13;101195.88;5076383;28;1492;-62
2020/12/05 06:15:09;;;;;;;;;;;;;;;17.77;56.54;101190.09;5056021;28;1306;-74
2020/12/05 06:17:35;;;;;;;;;;;;;;;17.92;57.87;101204.13;5080136;28;1416;-62
2020/12/05 06:20:01;;;;;;;;;;;;;;;18.12;57.18;101184.72;5014010;28;10614;-62
2020/12/05 06:22:47;;;;;;;;;;;;;;;18.31;56.45;101194.00;5016362;28;1298;-61
2020/12/05 06:25:16;;;;;;;;;;;;;;;18.29;55.85;101197.63;4984261;28;11320;-71
2020/12/05 06:27:55;;;;;;;;;;;;;;;18.44;57.08;101192.91;5075580;28;1203;-72
2020/12/05 06:30:20;;;;;;;;;;;;;;;18.78;56.96;101181.31;5070862;28;1964;-62
2020/12/05 06:32:47;;;;;;;;;;;;;;;19.02;57.72;101179.34;5057312;28;1317;-71
2020/12/05 06:35:33;;;;;;;;;;;;;;;19.05;57.60;101188.97;5055364;28;1294;-64
2020/12/05 06:39:59;;;;;;;;;;;;;;;19.65;56.43;101197.41;4899787;27;11963;-47
2020/12/05 06:42:24;;;;;;;;;;;;;;;19.79;56.88;101193.59;5009749;28;1465;-47
2020/12/05 06:44:49;;;;;;;;;;;;;;;20.13;57.05;101186.16;5011136;28;1264;-47
2020/12/05 06:47:21;;;;;;;;;;;;;;;20.10;57.38;101181.09;5010833;28;1156;-47
2020/12/05 06:49:47;;;;;;;;;;;;;;;19.98;57.58;101184.84;4954550;28;11623;-47
2020/12/05 06:52:25;;;;;;;;;;;;;;;19.98;58.54;101192.88;5055284;28;1253;-47
2020/12/05 06:54:50;;;;;;;;;;;;;;;19.86;58.64;101198.31;5039786;28;1654;-50
2020/12/05 06:57:15;;;;;;;;;;;;;;;19.77;58.46;101196.41;5040940;28;1373;-49
2020/12/05 06:59:40;;;;;;;;;;;;;;;19.74;58.44;101191.31;5040378;28;1257;-49
2020/12/05 07:02:24;;;;;;;;;;;;;;;19.76;58.81;101210.81;5039078;28;1423;-50
2020/12/05 07:04:50;;;;;;;;;;;;;;;19.80;58.60;101201.50;5041041;28;1222;-50
2020/12/05 07:07:31;;;;;;;;;;;;;;;19.77;58.95;101200.91;5039478;28;1226;-49
2020/12/05 07:09:56;;;;;;;;;;;;;;;19.63;59.12;101202.06;5028947;28;1383;-50
2020/12/05 07:12:21;;;;;;;;;;;;;;;19.59;59.14;101208.66;5030965;28;1285;-49
2020/12/05 07:14:46;;;;;;;;;;;;;;;19.53;59.32;101207.34;5034077;28;1284;-50
2020/12/05 07:17:30;;;;;;;;;;;;;;;19.49;59.25;101219.31;5040945;28;1372;-49
2020/12/05 07:19:55;;;;;;;;;;;;;;;19.45;59.31;101224.06;5036996;28;1289;-49
2020/12/05 07:22:22;;;;;;;;;;;;;;;19.74;60.72;101228.88;5039977;28;1344;-49
2020/12/05 07:24:47;;;;;;;;;;;;;;;19.98;59.62;101211.69;5040613;28;1234;-49
2020/12/05 07:27:12;;;;;;;;;;;;;;;20.90;58.21;101209.03;5038573;28;1344;-47
2020/12/05 07:29:37;;;;;;;;;;;;;;;21.14;58.58;101202.44;5039597;28;1369;-50
2020/12/05 07:32:06;;;;;;;;;;;;;;;20.18;55.88;101213.50;5045808;28;1277;-52
2020/12/05 07:34:31;;;;;;;;;;;;;;;19.56;58.85;101204.41;5046904;28;1495;-52
2020/12/05 07:36:56;;;;;;;;;;;;;;;19.37;60.06;101218.47;5049786;28;939;-53
2020/12/05 07:39:21;;;;;;;;;;;;;;;19.22;60.20;101211.72;5039989;28;1918;-53
2020/12/05 07:41:51;;;;;;;;;;;;;;;19.16;60.86;101234.53;5039203;28;1229;-52
2020/12/05 07:44:18;;;;;;;;;;;;;;;19.21;61.06;101231.47;5028296;28;2826;-52
2020/12/05 07:46:43;;;;;;;;;;;;;;;19.15;61.44;101227.44;5025906;28;1635;-52
2020/12/05 07:49:11;;;;;;;;;;;;;;;19.08;61.37;101231.63;5024160;28;1731;-52
2020/12/05 07:51:57;;;;;;;;;;;;;;;19.08;62.17;101226.25;5014170;28;1341;-53
2020/12/05 07:54:22;;;;;;;;;;;;;;;19.19;61.63;101236.09;5009821;28;1745;-52
2020/12/05 07:56:47;;;;;;;;;;;;;;;19.17;61.52;101220.13;5011943;28;1877;-53
2020/12/05 07:59:12;;;;;;;;;;;;;;;19.11;61.75;101230.50;5012236;28;1935;-52
2020/12/05 08:01:56;;;;;;;;;;;;;;;19.08;62.02;101224.44;4981745;28;11039;-52
2020/12/05 08:04:25;;;;;;;;;;;;;;;19.07;63.07;101229.91;4955306;28;13470;-51
2020/12/05 08:07:04;;;;;;;;;;;;;;;19.05;62.68;101234.53;4992950;28;1378;-52
2020/12/05 08:09:35;;;;;;;;;;;;;;;19.24;62.22;101237.44;4992153;28;1809;-51
2020/12/05 08:12:02;;;;;;;;;;;;;;;19.27;62.28;101239.84;4994096;28;1670;-52
2020/12/05 08:14:31;;;;;;;;;;;;;;;19.30;62.27;101235.19;5022483;28;1702;-52
2020/12/05 08:16:59;;;;;;;;;;;;;;;19.22;62.11;101239.38;4991548;28;1783;-52
2020/12/05 08:19:26;;;;;;;;;;;;;;;19.21;62.60;101247.53;4965828;28;11142;-52
2020/12/05 08:21:52;;;;;;;;;;;;;;;19.17;62.37;101246.09;4990600;28;1420;-53
2020/12/05 08:24:18;;;;;;;;;;;;;;;19.18;62.34;101255.81;4990268;28;2218;-52
2020/12/05 08:26:47;;;;;;;;;;;;;;;19.34;61.85;101250.94;4992265;28;1812;-51
2020/12/05 08:29:13;;;;;;;;;;;;;;;19.36;61.96;101257.03;4991900;28;1798;-52
2020/12/05 08:31:39;;;;;;;;;;;;;;;19.32;62.08;101252.00;4992303;28;1548;-51
2020/12/05 08:34:05;;;;;;;;;;;;;;;19.38;62.01;101249.72;4989861;28;1786;-54
2020/12/05 08:36:32;;;;;;;;;;;;;;;19.35;61.92;101258.00;4992119;28;1645;-53
2020/12/05 08:39:08;;;;;;;;;;;;;;;19.27;62.41;101247.03;4992069;28;1934;-52
2020/12/05 08:41:46;;;;;;;;;;;;;;;19.37;62.18;101264.06;4989645;28;1210;-53
2020/12/05 08:44:16;;;;;;;;;;;;;;;19.29;62.43;101274.59;4988889;28;1762;-53
2020/12/05 08:46:43;;;;;;;;;;;;;;;19.20;62.49;101261.91;4985324;28;1695;-53
2020/12/05 08:49:12;;;;;;;;;;;;;;;19.20;62.70;101254.75;4970433;28;11239;-52
2020/12/05 08:51:42;;;;;;;;;;;;;;;19.33;62.09;101238.50;4989856;28;1647;-51
2020/12/05 08:54:07;;;;;;;;;;;;;;;19.29;62.18;101250.44;4992523;28;1759;-52
2020/12/05 08:56:33;;;;;;;;;;;;;;;19.26;62.44;101250.72;4992606;28;1796;-52
2020/12/05 08:59:01;;;;;;;;;;;;;;;19.20;62.60;101243.16;4990927;28;1894;-53
2020/12/05 09:01:36;;;;;;;;;;;;;;;19.18;62.67;101245.09;4989184;28;1554;-53
2020/12/05 09:04:02;;;;;;;;;;;;;;;19.14;62.47;101238.28;4990339;28;1814;-52
2020/12/05 09:06:27;;;;;;;;;;;;;;;19.21;62.54;101248.38;4990585;28;1549;-52
2020/12/05 09:08:52;;;;;;;;;;;;;;;19.19;62.72;101246.81;4992359;28;1512;-54
2020/12/05 09:11:22;;;;;;;;;;;;;;;19.24;62.54;101241.94;4993068;28;1154;-53
2020/12/05 09:13:47;;;;;;;;;;;;;;;19.22;62.79;101234.03;4989655;28;1805;-52
2020/12/05 09:16:13;;;;;;;;;;;;;;;19.23;62.79;101234.88;4991028;28;1579;-51
2020/12/05 09:18:39;;;;;;;;;;;;;;;19.23;63.53;101229.50;4992184;28;1886;-52
2020/12/05 09:21:12;;;;;;;;;;;;;;;19.26;63.88;101245.34;4991276;28;1724;-52
2020/12/05 09:23:37;;;;;;;;;;;;;;;19.30;64.78;101251.28;4988099;28;1793;-52
2020/12/05 09:26:04;;;;;;;;;;;;;;;19.37;65.38;101247.97;4990934;28;1190;-52
2020/12/05 09:28:30;;;;;;;;;;;;;;;19.42;64.80;101237.75;4991904;28;1733;-52
2020/12/05 09:30:55;;;;;;;;;;;;;;;19.43;63.38;101252.84;4984805;28;11269;-51
2020/12/05 09:33:22;;;;;;;;;;;;;;;19.51;64.24;101254.06;5011965;28;1618;-52
2020/12/05 09:35:48;;;;;;;;;;;;;;;19.41;63.66;101246.75;5012049;28;1301;-51
2020/12/05 09:38:14;;;;;;;;;;;;;;;19.45;63.89;101250.88;5010327;28;1918;-53
2020/12/05 09:40:39;;;;;;;;;;;;;;;19.38;64.03;101248.88;5006560;28;1745;-51
2020/12/05 09:43:06;;;;;;;;;;;;;;;19.42;63.29;101235.06;5003260;28;1579;-52
2020/12/05 09:45:33;;;;;;;;;;;;;;;19.50;63.79;101244.28;5010914;28;1787;-52
2020/12/05 09:47:58;;;;;;;;;;;;;;;19.56;62.87;101241.97;5011490;28;811;-51
2020/12/05 09:50:25;;;;;;;;;;;;;;;19.61;64.36;101233.53;5013508;28;1722;-51
2020/12/05 09:52:50;;;;;;;;;;;;;;;19.41;64.66;101241.38;5025991;28;1802;-51
2020/12/05 09:55:16;;;;;;;;;;;;;;;19.31;64.76;101229.72;5012202;28;1804;-51
2020/12/05 09:57:41;;;;;;;;;;;;;;;19.31;64.76;101240.44;5044551;28;1890;-52
2020/12/05 10:00:09;;;;;;;;;;;;;;;19.33;64.69;101246.53;5043620;28;1722;-51
2020/12/05 10:02:35;;;;;;;;;;;;;;;19.36;64.70;101251.66;5011487;28;1718;-51
2020/12/05 10:05:02;;;;;;;;;;;;;;;19.38;64.93;101243.50;5042592;28;1708;-51
2020/12/05 10:07:27;;;;;;;;;;;;;;;19.38;64.93;101233.63;5010277;28;1728;-51
2020/12/05 10:09:54;;;;;;;;;;;;;;;19.40;64.90;101230.81;5012134;28;1830;-51
2020/12/05 10:12:19;;;;;;;;;;;;;;;19.39;64.94;101235.31;5017435;28;805;-50
2020/12/05 10:14:45;;;;;;;;;;;;;;;19.43;65.13;101236.75;5012988;28;1789;-51
2020/12/05 10:17:16;;;;;;;;;;;;;;;19.43;65.08;101246.63;5010721;28;1759;-50
2020/12/05 10:19:43;;;;;;;;;;;;;;;19.40;65.18;101236.19;5010432;28;1886;-51
2020/12/05 10:22:09;;;;;;;;;;;;;;;19.36;65.21;101230.22;5011555;28;1893;-50
2020/12/05 10:24:34;;;;;;;;;;;;;;;19.37;65.16;101245.31;5011557;28;1662;-52
2020/12/05 10:27:00;;;;;;;;;;;;;;;19.40;65.14;101249.59;5012726;28;909;-51
2020/12/05 10:29:26;;;;;;;;;;;;;;;19.38;65.18;101238.97;5011515;28;1729;-51
2020/12/05 10:31:53;;;;;;;;;;;;;;;19.34;65.25;101232.16;5011542;28;1852;-51
2020/12/05 10:34:20;;;;;;;;;;;;;;;19.36;65.28;101235.56;5042891;28;1763;-51
2020/12/05 10:36:46;;;;;;;;;;;;;;;19.35;65.01;101227.66;5011866;28;1709;-51
2020/12/05 10:39:13;;;;;;;;;;;;;;;19.34;65.17;101237.53;5007239;28;1954;-51
2020/12/05 10:41:40;;;;;;;;;;;;;;;19.33;65.30;101227.75;5011140;28;1351;-51
2020/12/05 10:44:08;;;;;;;;;;;;;;;19.33;65.04;101230.44;5009930;28;2042;-51
2020/12/05 10:46:38;;;;;;;;;;;;;;;19.35;65.15;101233.84;5012372;28;1947;-51
2020/12/05 10:49:04;;;;;;;;;;;;;;;19.34;65.23;101231.28;5011686;28;1713;-52
2020/12/05 10:51:30;;;;;;;;;;;;;;;19.34;65.23;101229.47;5011378;28;1717;-51
2020/12/05 10:53:56;;;;;;;;;;;;;;;19.30;65.14;101227.16;5011994;28;1899;-50
2020/12/05 10:56:26;;;;;;;;;;;;;;;19.36;65.20;101229.34;5012669;28;848;-51
2020/12/05 10:58:52;;;;;;;;;;;;;;;19.35;65.18;101233.00;5012291;28;1971;-50
2020/12/05 11:01:20;;;;;;;;;;;;;;;19.36;65.11;101230.22;5008705;28;1909;-51
2020/12/05 11:03:46;;;;;;;;;;;;;;;19.33;65.10;101219.72;5011467;28;1891;-53
2020/12/05 11:06:18;;;;;;;;;;;;;;;19.31;65.05;101221.69;5011535;28;1735;-50
2020/12/05 11:08:46;;;;;;;;;;;;;;;19.31;65.20;101216.31;5011887;28;1723;-51
2020/12/05 11:11:12;;;;;;;;;;;;;;;19.34;65.14;101223.25;5012364;28;987;-50
2020/12/05 11:13:37;;;;;;;;;;;;;;;19.31;65.28;101220.84;5011863;28;1919;-50
2020/12/05 11:16:04;;;;;;;;;;;;;;;19.32;64.96;101236.81;5011986;28;1806;-52
2020/12/05 11:18:29;;;;;;;;;;;;;;;19.31;65.20;101224.34;5010988;28;1961;-50
2020/12/05 11:20:56;;;;;;;;;;;;;;;19.34;65.44;101225.94;5011654;28;1571;-52
2020/12/05 11:23:22;;;;;;;;;;;;;;;19.31;64.88;101226.19;5012003;28;897;-51
2020/12/05 11:25:48;;;;;;;;;;;;;;;19.32;65.18;101225.19;4996418;28;1864;-51
2020/12/05 11:28:13;;;;;;;;;;;;;;;19.26;65.01;101211.34;4999002;28;1659;-50
2020/12/05 11:30:41;;;;;;;;;;;;;;;19.29;65.09;101220.94;5015503;28;1818;-51
2020/12/05 11:33:07;;;;;;;;;;;;;;;19.30;65.07;101220.00;4996191;28;778;-50
2020/12/05 11:35:33;;;;;;;;;;;;;;;19.26;65.02;101214.03;5011178;28;1527;-51
2020/12/05 11:37:59;;;;;;;;;;;;;;;19.25;65.18;101222.19;4998728;28;1890;-50
2020/12/05 11:40:25;;;;;;;;;;;;;;;19.28;65.13;101227.31;5014993;28;1491;-50
2020/12/05 11:42:51;;;;;;;;;;;;;;;19.27;65.16;101230.94;5015704;28;802;-51
2020/12/05 11:45:18;;;;;;;;;;;;;;;19.29;65.18;101218.28;5015414;28;1935;-52
2020/12/05 11:47:44;;;;;;;;;;;;;;;19.29;65.05;101212.91;5015269;28;2042;-50
2020/12/05 11:50:10;;;;;;;;;;;;;;;19.24;64.77;101209.78;5014949;28;1792;-50
2020/12/05 11:52:36;;;;;;;;;;;;;;;19.25;64.90;101227.56;5012942;28;1786;-51
2020/12/05 11:55:03;;;;;;;;;;;;;;;19.25;64.87;101211.47;5014334;28;1645;-51
2020/12/05 11:57:29;;;;;;;;;;;;;;;19.29;64.94;101237.03;5015903;28;1906;-51
2020/12/05 11:59:55;;;;;;;;;;;;;;;19.24;65.11;101221.34;5014442;28;1683;-51
2020/12/05 12:02:21;;;;;;;;;;;;;;;19.27;65.00;101230.94;5014799;28;1894;-51
2020/12/05 12:04:47;;;;;;;;;;;;;;;19.25;64.87;101231.06;5002715;28;1691;-51
2020/12/05 12:07:14;;;;;;;;;;;;;;;19.27;64.91;101226.44;5010223;28;1780;-51
2020/12/05 12:09:40;;;;;;;;;;;;;;;19.26;64.83;101224.75;5014478;28;1626;-51
2020/12/05 12:12:06;;;;;;;;;;;;;;;19.30;64.78;101230.72;5015244;28;903;-50
2020/12/05 12:14:33;;;;;;;;;;;;;;;19.27;64.91;101214.88;5013189;28;1776;-51
2020/12/05 12:16:59;;;;;;;;;;;;;;;19.30;64.86;101221.78;5013799;28;1804;-51
2020/12/05 12:19:26;;;;;;;;;;;;;;;19.25;64.67;101230.22;5014696;28;1894;-50
2020/12/05 12:21:52;;;;;;;;;;;;;;;19.28;64.78;101216.59;5014668;28;1978;-50
2020/12/05 12:24:17;;;;;;;;;;;;;;;19.27;64.80;101209.50;5014261;28;1857;-51
2020/12/05 12:26:44;;;;;;;;;;;;;;;19.28;64.79;101227.31;5014289;28;853;-50
2020/12/05 12:29:10;;;;;;;;;;;;;;;19.27;64.85;101214.88;5014765;28;1981;-51
2020/12/05 12:31:42;;;;;;;;;;;;;;;19.28;64.73;101224.63;5009239;28;1836;-50
2020/12/05 12:34:07;;;;;;;;;;;;;;;19.27;64.75;101230.94;5006698;28;1650;-50
2020/12/05 12:36:33;;;;;;;;;;;;;;;18.94;63.59;101224.69;5011945;28;1718;-50
2020/12/05 12:38:59;;;;;;;;;;;;;;;19.47;64.25;101219.41;5003663;28;1943;-50
2020/12/05 12:41:26;;;;;;;;;;;;;;;19.70;63.27;101232.75;5006530;28;1628;-51
2020/12/05 12:43:51;;;;;;;;;;;;;;;19.57;63.83;101232.06;5007475;28;1697;-50
2020/12/05 12:46:22;;;;;;;;;;;;;;;19.60;64.23;101239.88;5008030;28;1849;-51
2020/12/05 12:48:54;;;;;;;;;;;;;;;19.69;63.96;101236.41;5011247;28;1476;-51
2020/12/05 12:51:23;;;;;;;;;;;;;;;19.63;64.66;101231.56;5010924;28;1754;-51